createdAt,value
2019-05-23T00:03:00.865Z,16.9
2019-05-23T00:07:58.221Z,15.9
2019-05-23T00:12:55.750Z,16.2
2019-05-23T00:17:52.815Z,16.9
2019-05-23T00:22:50.340Z,16.9
2019-05-23T00:27:47.264Z,16.8
2019-05-23T00:32:44.062Z,15.8
2019-05-23T00:37:41.052Z,16.8
2019-05-23T00:42:38.591Z,16.7
2019-05-23T00:47:35.709Z,16.7
2019-05-23T00:52:32.917Z,16.6
2019-05-23T00:57:30.204Z,16.6
2019-05-23T01:02:26.978Z,16.6
2019-05-23T01:07:24.189Z,16.6
2019-05-23T01:12:21.383Z,16.4
2019-05-23T01:17:18.543Z,16
2019-05-23T01:22:15.790Z,16.5
2019-05-23T01:27:13.633Z,15.7
2019-05-23T01:32:11.034Z,16.3
2019-05-23T01:37:08.396Z,16.3
2019-05-23T01:42:05.738Z,16.3
2019-05-23T01:47:02.933Z,16.3
2019-05-23T01:52:00.158Z,16.2
2019-05-23T01:56:57.422Z,16
2019-05-23T02:01:55.038Z,16.1
2019-05-23T02:06:52.418Z,16.1
2019-05-23T02:11:49.755Z,16.1
2019-05-23T02:16:46.958Z,16
2019-05-23T02:21:44.654Z,16
2019-05-23T02:26:41.786Z,16.1
2019-05-23T02:31:39.697Z,15.6
2019-05-23T02:36:36.904Z,16
2019-05-23T02:41:34.513Z,16
2019-05-23T02:46:31.223Z,15.9
2019-05-23T02:51:28.294Z,15.9
2019-05-23T02:56:25.916Z,15.9
2019-05-23T03:01:23.490Z,15.9
2019-05-23T03:06:20.701Z,15.9
2019-05-23T03:11:18.414Z,15.8
2019-05-23T03:16:15.443Z,15.1
2019-05-23T03:21:12.655Z,15.8
2019-05-23T03:26:09.623Z,15.6
2019-05-23T03:31:26.276Z,15.7
2019-05-23T03:36:04.099Z,15.5
2019-05-23T03:41:01.843Z,15.6
2019-05-23T03:45:59.132Z,15.5
2019-05-23T03:50:56.730Z,15.4
2019-05-23T03:55:53.355Z,15.4
2019-05-23T04:00:50.502Z,15.3
2019-05-23T04:05:47.755Z,15.3
2019-05-23T04:10:44.890Z,15.3
2019-05-23T04:15:42.024Z,15.4
2019-05-23T04:20:39.441Z,15.3
2019-05-23T04:25:36.586Z,15.5
2019-05-23T04:30:34.347Z,14.8
2019-05-23T04:35:31.907Z,15.6
2019-05-23T04:40:29.776Z,15.6
2019-05-23T04:45:27.115Z,15.7
2019-05-23T04:50:23.925Z,15.8
2019-05-23T04:55:21.756Z,15.1
2019-05-23T05:00:19.366Z,15.9
2019-05-23T05:05:16.497Z,15.9
2019-05-23T05:10:13.689Z,16
2019-05-23T05:15:11.410Z,16
2019-05-23T05:20:09.062Z,15.4
2019-05-23T05:25:06.901Z,16.1
2019-05-23T05:30:04.309Z,16.1
2019-05-23T05:35:01.756Z,16.2
2019-05-23T05:39:59.377Z,16.2
2019-05-23T05:44:55.806Z,16.3
2019-05-23T05:49:53.008Z,16.3
2019-05-23T05:54:50.376Z,15.4
2019-05-23T05:59:47.907Z,16.3
2019-05-23T06:04:45.297Z,16.3
2019-05-23T06:09:42.521Z,16.4
2019-05-23T06:14:40.220Z,16.4
2019-05-23T06:19:37.417Z,16.4
2019-05-23T06:24:43.802Z,15.6
2019-05-23T06:29:32.433Z,16.5
2019-05-23T06:34:29.816Z,16.6
2019-05-23T06:39:27.328Z,16.6
2019-05-23T06:44:24.758Z,16
2019-05-23T06:49:22.064Z,16.8
2019-05-23T06:54:19.272Z,16.8
2019-05-23T06:59:17.146Z,16.8
2019-05-23T07:04:14.562Z,17
2019-05-23T07:09:12.261Z,17
2019-05-23T07:14:09.496Z,17
2019-05-23T07:19:06.478Z,17.1
2019-05-23T07:24:03.812Z,17.1
2019-05-23T07:29:01.754Z,17.2
2019-05-23T07:34:02.092Z,17.3
2019-05-23T07:38:56.528Z,17.3
2019-05-23T07:43:53.789Z,17.4
2019-05-23T07:48:51.418Z,17
2019-05-23T07:53:49.041Z,17.5
2019-05-23T07:58:46.759Z,17.1
2019-05-23T08:03:44.140Z,17.6
2019-05-23T08:08:40.900Z,17.7
2019-05-23T08:13:38.272Z,17.7
2019-05-23T08:18:35.842Z,17.3
2019-05-23T08:23:33.609Z,17.2
2019-05-23T08:28:30.839Z,17.9
2019-05-23T08:33:27.760Z,17.9
2019-05-23T08:38:24.974Z,18
2019-05-23T08:43:22.904Z,17.5
2019-05-23T08:48:20.684Z,17.5
2019-05-23T08:53:18.134Z,18
2019-05-23T08:58:15.897Z,18.1
2019-05-23T09:03:12.938Z,18.1
2019-05-23T09:08:10.629Z,17.6
2019-05-23T09:13:07.858Z,18.1
2019-05-23T09:18:05.197Z,18.3
2019-05-23T09:23:02.615Z,17.5
2019-05-23T09:28:00.190Z,18
2019-05-23T09:32:57.590Z,18.1
2019-05-23T09:37:55.114Z,18.3
2019-05-23T09:42:53.022Z,18.9
2019-05-23T09:47:51.368Z,19
2019-05-23T09:52:48.409Z,18.7
2019-05-23T09:57:45.812Z,19.3
2019-05-23T10:02:42.807Z,19
2019-05-23T10:07:40.467Z,19
2019-05-23T10:12:37.502Z,19.2
2019-05-23T10:17:35.178Z,19.2
2019-05-23T10:22:32.864Z,19.4
2019-05-23T10:27:29.992Z,19.5
2019-05-23T10:32:27.275Z,19.5
2019-05-23T10:37:24.530Z,19.6
2019-05-23T10:42:22.334Z,20.1
2019-05-23T10:47:19.545Z,19.7
2019-05-23T10:52:17.264Z,19.7
2019-05-23T10:57:14.695Z,19.8
2019-05-23T11:02:11.891Z,19.9
2019-05-23T11:07:09.572Z,20.3
2019-05-23T11:12:07.830Z,20
2019-05-23T11:17:04.336Z,20.1
2019-05-23T11:22:01.775Z,20.1
2019-05-23T11:26:59.739Z,20.6
2019-05-23T11:31:57.603Z,20.9
2019-05-23T11:36:55.117Z,21
2019-05-23T11:41:52.493Z,20.6
2019-05-23T11:46:49.989Z,20.8
2019-05-23T11:51:47.573Z,20.9
2019-05-23T11:56:44.963Z,16.3
2019-05-23T12:01:42.315Z,21.2
2019-05-23T12:06:54.080Z,21.1
2019-05-23T12:11:42.099Z,21.2
2019-05-23T12:16:34.426Z,21.4
2019-05-23T12:21:32.306Z,21.8
2019-05-23T12:26:29.442Z,21.5
2019-05-23T12:31:27.226Z,21.5
2019-05-23T12:36:24.513Z,21.6
2019-05-23T12:41:21.518Z,21.7
2019-05-23T12:46:19.450Z,21.8
2019-05-23T12:51:17.140Z,21.9
2019-05-23T12:56:15.017Z,22.4
2019-05-23T13:01:11.583Z,22
2019-05-23T13:06:09.215Z,22
2019-05-23T13:11:06.621Z,22
2019-05-23T13:16:04.464Z,22.4
2019-05-23T13:21:01.801Z,22
2019-05-23T13:25:59.390Z,22.4
2019-05-23T13:30:56.582Z,21.9
2019-05-23T13:35:54.205Z,21.6
2019-05-23T13:40:51.338Z,21.3
2019-05-23T13:45:48.612Z,21.2
2019-05-23T13:50:45.620Z,21.1
2019-05-23T13:55:42.833Z,21.1
2019-05-23T14:00:40.304Z,21
2019-05-23T14:05:37.514Z,21
2019-05-23T14:10:35.184Z,21
2019-05-23T14:15:32.860Z,21
2019-05-23T14:20:30.248Z,21
2019-05-23T14:25:27.882Z,21.1
2019-05-23T14:30:25.569Z,21.2
2019-05-23T14:35:22.840Z,21.1
2019-05-23T14:40:19.616Z,21.1
2019-05-23T14:45:17.064Z,21.1
2019-05-23T14:50:14.452Z,21
2019-05-23T14:55:12.155Z,21.5
2019-05-23T15:00:09.488Z,21.1
2019-05-23T15:05:06.739Z,21.2
2019-05-23T15:10:03.565Z,21.2
2019-05-23T15:15:01.395Z,21.7
2019-05-23T15:19:58.593Z,21.2
2019-05-23T15:24:55.933Z,21.2
2019-05-23T15:29:53.407Z,21.3
2019-05-23T15:34:50.892Z,21.3
2019-05-23T15:39:48.600Z,21.3
2019-05-23T15:44:45.691Z,21.2
2019-05-23T15:49:43.035Z,21.3
2019-05-23T15:54:40.791Z,21.2
2019-05-23T15:59:38.267Z,21.7
2019-05-23T16:04:35.946Z,21.2
2019-05-23T16:09:33.044Z,21.3
2019-05-23T16:14:30.162Z,21.2
2019-05-23T16:19:27.661Z,21.2
2019-05-23T16:24:25.044Z,21.1
2019-05-23T16:29:22.601Z,21.1
2019-05-23T16:34:19.627Z,20.9
2019-05-23T16:39:16.911Z,20.7
2019-05-23T16:44:13.993Z,21.2
2019-05-23T16:49:11.819Z,20.6
2019-05-23T16:54:09.321Z,20.5
2019-05-23T16:59:06.723Z,20.2
2019-05-23T17:04:04.008Z,20.6
2019-05-23T17:09:01.883Z,20.4
2019-05-23T17:13:59.379Z,20.4
2019-05-23T17:18:56.694Z,20.3
2019-05-23T17:23:54.086Z,20.3
2019-05-23T17:28:51.401Z,19.7
2019-05-23T17:33:48.548Z,20
2019-05-23T17:38:46.362Z,20.1
2019-05-23T17:43:44.077Z,20.4
2019-05-23T17:48:41.593Z,19.8
2019-05-23T17:53:38.736Z,19.8
2019-05-23T17:58:36.247Z,20
2019-05-23T18:03:32.759Z,19.4
2019-05-23T18:08:29.837Z,19.1
2019-05-23T18:13:27.001Z,19.2
2019-05-23T18:18:24.252Z,19.3
2019-05-23T18:23:21.565Z,19.5
2019-05-23T18:28:18.945Z,19.3
2019-05-23T18:33:16.467Z,19.2
2019-05-23T18:38:13.738Z,19.1
2019-05-23T18:43:11.515Z,19.4
2019-05-23T18:48:08.507Z,19
2019-05-23T18:53:05.755Z,19
2019-05-23T18:58:03.450Z,18.8
2019-05-23T19:03:01.139Z,19.2
2019-05-23T19:07:58.297Z,18.6
2019-05-23T19:12:55.921Z,18.6
2019-05-23T19:17:53.250Z,18.4
2019-05-23T19:22:50.387Z,18.5
2019-05-23T19:27:48.031Z,18.2
2019-05-23T19:32:45.132Z,18.2
2019-05-23T19:37:42.909Z,18.2
2019-05-23T19:42:40.458Z,18.3
2019-05-23T19:47:38.064Z,18.7
2019-05-23T19:52:35.103Z,18.1
2019-05-23T19:57:32.799Z,18.1
2019-05-23T20:02:29.885Z,18.1
2019-05-23T20:07:27.276Z,18.3
2019-05-23T20:12:24.327Z,18.4
2019-05-23T20:17:21.478Z,18
2019-05-23T20:22:18.569Z,18
2019-05-23T20:27:15.436Z,18.3
2019-05-23T20:32:12.667Z,18.2
2019-05-23T20:37:10.110Z,18.2
2019-05-23T20:42:11.188Z,17.8
2019-05-23T20:47:04.982Z,18
2019-05-23T20:52:02.265Z,18.1
2019-05-23T20:56:59.399Z,18
2019-05-23T21:01:56.653Z,17.3
2019-05-23T21:06:54.260Z,17.2
2019-05-23T21:11:51.914Z,17.9
2019-05-23T21:16:49.159Z,17.8
2019-05-23T21:21:46.910Z,17.8
2019-05-23T21:26:44.013Z,17.7
2019-05-23T21:31:41.571Z,17.7
2019-05-23T21:36:38.505Z,17.6
2019-05-23T21:41:36.164Z,17.5
2019-05-23T21:46:33.535Z,17.5
2019-05-23T21:51:30.518Z,17.5
2019-05-23T21:56:27.790Z,17.4
2019-05-23T22:01:25.500Z,17.3
2019-05-23T22:06:22.561Z,17.3
2019-05-23T22:11:20.218Z,17.2
2019-05-23T22:16:17.939Z,17.2
2019-05-23T22:21:14.960Z,17.2
2019-05-23T22:26:11.499Z,17.1
2019-05-23T22:31:08.751Z,16.9
2019-05-23T22:36:05.842Z,17
2019-05-23T22:41:03.021Z,16.9
2019-05-23T22:46:00.314Z,16.9
2019-05-23T22:50:58.018Z,16.9
2019-05-23T22:55:55.257Z,16.8
2019-05-23T23:00:52.808Z,16.8
2019-05-23T23:05:49.875Z,16.6
2019-05-23T23:10:47.581Z,16.4
2019-05-23T23:15:44.762Z,16.6
2019-05-23T23:20:45.316Z,16.4
2019-05-23T23:25:39.318Z,16.2
2019-05-23T23:30:36.675Z,16.4
2019-05-23T23:35:33.739Z,16.5
2019-05-23T23:40:31.451Z,16.6
2019-05-23T23:45:28.698Z,16.3
2019-05-23T23:50:26.016Z,16.3
2019-05-23T23:55:23.574Z,16.5
